sensor_id;sensor_type;location;lat;lon;timestamp;pressure;altitude;pressure_sealevel;temperature;humidity
72423;BME280;60413;55.658;37.498;2023-03-21T00:01:28;98441.53;;;2.86;100.00
72423;BME280;60413;55.658;37.498;2023-03-21T00:04:38;98415.00;;;2.64;100.00
72423;BME280;60413;55.658;37.498;2023-03-21T00:07:57;98437.53;;;2.84;100.00
72423;BME280;60413;55.658;37.498;2023-03-21T00:15:09;98436.78;;;2.70;100.00
72423;BME280;60413;55.658;37.498;2023-03-21T00:17:58;98421.19;;;2.56;100.00
72423;BME280;60413;55.658;37.498;2023-03-21T00:20:58;98407.78;;;2.66;100.00
72423;BME280;60413;55.658;37.498;2023-03-21T00:23:34;98400.34;;;2.70;100.00
72423;BME280;60413;55.658;37.498;2023-03-21T00:26:22;98469.69;;;3.16;100.00
72423;BME280;60413;55.658;37.498;2023-03-21T00:29:12;98396.78;;;2.64;100.00
72423;BME280;60413;55.658;37.498;2023-03-21T00:31:50;98401.34;;;2.69;100.00
72423;BME280;60413;55.658;37.498;2023-03-21T00:34:41;98404.56;;;2.71;100.00
72423;BME280;60413;55.658;37.498;2023-03-21T00:37:18;98400.31;;;2.83;100.00
72423;BME280;60413;55.658;37.498;2023-03-21T00:39:52;98407.69;;;2.93;100.00
72423;BME280;60413;55.658;37.498;2023-03-21T00:42:36;98442.88;;;3.02;100.00
72423;BME280;60413;55.658;37.498;2023-03-21T00:45:09;98385.16;;;2.67;100.00
72423;BME280;60413;55.658;37.498;2023-03-21T00:47:39;98398.69;;;2.82;100.00
72423;BME280;60413;55.658;37.498;2023-03-21T00:50:19;98394.13;;;2.77;100.00
72423;BME280;60413;55.658;37.498;2023-03-21T00:52:54;98384.94;;;2.68;100.00
72423;BME280;60413;55.658;37.498;2023-03-21T00:55:28;98387.56;;;2.62;100.00
72423;BME280;60413;55.658;37.498;2023-03-21T00:58:01;98377.47;;;2.85;100.00
72423;BME280;60413;55.658;37.498;2023-03-21T01:00:27;98377.66;;;2.90;100.00
72423;BME280;60413;55.658;37.498;2023-03-21T01:03:11;98401.88;;;2.97;100.00
72423;BME280;60413;55.658;37.498;2023-03-21T01:05:49;98439.53;;;3.40;100.00
72423;BME280;60413;55.658;37.498;2023-03-21T01:08:35;98415.28;;;3.01;100.00
72423;BME280;60413;55.658;37.498;2023-03-21T01:11:09;98360.97;;;2.59;100.00
72423;BME280;60413;55.658;37.498;2023-03-21T01:13:39;98430.25;;;3.12;100.00
72423;BME280;60413;55.658;37.498;2023-03-21T01:16:44;98341.16;;;2.58;100.00
72423;BME280;60413;55.658;37.498;2023-03-21T01:19:28;98397.88;;;2.95;100.00
72423;BME280;60413;55.658;37.498;2023-03-21T01:22:06;98365.09;;;2.74;100.00
72423;BME280;60413;55.658;37.498;2023-03-21T01:24:36;98361.91;;;2.72;100.00
72423;BME280;60413;55.658;37.498;2023-03-21T01:27:10;98361.28;;;2.83;100.00
72423;BME280;60413;55.658;37.498;2023-03-21T01:29:49;98407.19;;;3.16;100.00
72423;BME280;60413;55.658;37.498;2023-03-21T01:32:29;98416.97;;;3.21;100.00
72423;BME280;60413;55.658;37.498;2023-03-21T01:35:22;98371.25;;;2.93;100.00
72423;BME280;60413;55.658;37.498;2023-03-21T01:38:19;98418.97;;;3.25;100.00
72423;BME280;60413;55.658;37.498;2023-03-21T01:40:54;98394.19;;;3.16;100.00
72423;BME280;60413;55.658;37.498;2023-03-21T01:43:37;98429.72;;;3.36;100.00
72423;BME280;60413;55.658;37.498;2023-03-21T01:49:45;98350.66;;;2.85;100.00
72423;BME280;60413;55.658;37.498;2023-03-21T01:52:51;98381.84;;;2.98;100.00
72423;BME280;60413;55.658;37.498;2023-03-21T01:55:37;98392.41;;;3.10;100.00
72423;BME280;60413;55.658;37.498;2023-03-21T01:58:38;98384.75;;;3.15;100.00
72423;BME280;60413;55.658;37.498;2023-03-21T02:01:37;98343.44;;;2.87;100.00
72423;BME280;60413;55.658;37.498;2023-03-21T02:04:28;98388.16;;;3.15;100.00
72423;BME280;60413;55.658;37.498;2023-03-21T02:07:16;98335.09;;;2.78;100.00
72423;BME280;60413;55.658;37.498;2023-03-21T02:10:12;98362.63;;;2.99;100.00
72423;BME280;60413;55.658;37.498;2023-03-21T02:13:15;98331.56;;;2.59;100.00
72423;BME280;60413;55.658;37.498;2023-03-21T02:16:51;98390.00;;;3.08;100.00
72423;BME280;60413;55.658;37.498;2023-03-21T02:34:39;98353.28;;;2.85;100.00
72423;BME280;60413;55.658;37.498;2023-03-21T02:37:25;98316.41;;;2.43;100.00
72423;BME280;60413;55.658;37.498;2023-03-21T02:40:22;98358.91;;;2.75;100.00
72423;BME280;60413;55.658;37.498;2023-03-21T02:46:54;98315.16;;;2.52;100.00
72423;BME280;60413;55.658;37.498;2023-03-21T02:50:32;98310.97;;;2.51;100.00
72423;BME280;60413;55.658;37.498;2023-03-21T02:53:37;98297.19;;;2.37;100.00
72423;BME280;60413;55.658;37.498;2023-03-21T02:56:35;98369.13;;;2.70;100.00
72423;BME280;60413;55.658;37.498;2023-03-21T02:59:19;98290.41;;;2.43;100.00
72423;BME280;60413;55.658;37.498;2023-03-21T03:02:25;98288.41;;;2.38;100.00
72423;BME280;60413;55.658;37.498;2023-03-21T03:05:46;98368.28;;;2.83;100.00
72423;BME280;60413;55.658;37.498;2023-03-21T03:11:55;98310.50;;;2.60;100.00
72423;BME280;60413;55.658;37.498;2023-03-21T03:14:55;98285.16;;;2.56;100.00
72423;BME280;60413;55.658;37.498;2023-03-21T03:17:40;98359.63;;;2.95;100.00
72423;BME280;60413;55.658;37.498;2023-03-21T03:35:07;98305.72;;;2.64;100.00
72423;BME280;60413;55.658;37.498;2023-03-21T03:42:34;98263.97;;;2.46;100.00
72423;BME280;60413;55.658;37.498;2023-03-21T03:45:59;98281.97;;;2.47;100.00
72423;BME280;60413;55.658;37.498;2023-03-21T03:48:51;98271.59;;;2.40;100.00
72423;BME280;60413;55.658;37.498;2023-03-21T04:02:26;98254.13;;;2.54;100.00
72423;BME280;60413;55.658;37.498;2023-03-21T04:05:55;98278.69;;;2.65;100.00
72423;BME280;60413;55.658;37.498;2023-03-21T04:09:30;98334.25;;;3.23;100.00
72423;BME280;60413;55.658;37.498;2023-03-21T04:13:14;98279.44;;;2.79;100.00
72423;BME280;60413;55.658;37.498;2023-03-21T04:16:19;98342.16;;;3.09;100.00
72423;BME280;60413;55.658;37.498;2023-03-21T04:19:34;98298.59;;;2.91;100.00
72423;BME280;60413;55.658;37.498;2023-03-21T04:23:31;98321.91;;;3.11;100.00
72423;BME280;60413;55.658;37.498;2023-03-21T04:26:17;98257.47;;;2.68;100.00
72423;BME280;60413;55.658;37.498;2023-03-21T04:29:11;98283.78;;;2.85;100.00
72423;BME280;60413;55.658;37.498;2023-03-21T04:32:32;98330.28;;;3.13;100.00
72423;BME280;60413;55.658;37.498;2023-03-21T04:39:19;98273.81;;;2.75;100.00
72423;BME280;60413;55.658;37.498;2023-03-21T04:42:46;98269.03;;;2.79;100.00
72423;BME280;60413;55.658;37.498;2023-03-21T04:51:00;98342.81;;;3.30;100.00
72423;BME280;60413;55.658;37.498;2023-03-21T04:53:41;98277.47;;;3.06;100.00
72423;BME280;60413;55.658;37.498;2023-03-21T04:56:17;98260.47;;;3.04;100.00
72423;BME280;60413;55.658;37.498;2023-03-21T05:03:14;98296.81;;;3.17;100.00
72423;BME280;60413;55.658;37.498;2023-03-21T05:06:03;98272.19;;;3.20;100.00
72423;BME280;60413;55.658;37.498;2023-03-21T05:13:09;98296.16;;;3.28;100.00
72423;BME280;60413;55.658;37.498;2023-03-21T05:16:01;98278.22;;;3.13;100.00
72423;BME280;60413;55.658;37.498;2023-03-21T05:22:24;98281.53;;;3.27;100.00
72423;BME280;60413;55.658;37.498;2023-03-21T05:29:13;98293.25;;;3.43;100.00
72423;BME280;60413;55.658;37.498;2023-03-21T05:40:03;98300.84;;;3.70;100.00
72423;BME280;60413;55.658;37.498;2023-03-21T05:43:02;98302.56;;;3.83;100.00
72423;BME280;60413;55.658;37.498;2023-03-21T05:47:02;98320.31;;;3.93;100.00
72423;BME280;60413;55.658;37.498;2023-03-21T05:49:58;98275.06;;;3.62;100.00
72423;BME280;60413;55.658;37.498;2023-03-21T06:02:52;98338.75;;;4.53;100.00
72423;BME280;60413;55.658;37.498;2023-03-21T06:26:09;98256.56;;;4.44;100.00
72423;BME280;60413;55.658;37.498;2023-03-21T06:31:38;98300.94;;;4.93;100.00
72423;BME280;60413;55.658;37.498;2023-03-21T06:35:05;98314.94;;;4.98;100.00
72423;BME280;60413;55.658;37.498;2023-03-21T06:38:06;98314.88;;;5.17;100.00
72423;BME280;60413;55.658;37.498;2023-03-21T06:40:37;98288.84;;;5.10;100.00
72423;BME280;60413;55.658;37.498;2023-03-21T06:43:49;98238.88;;;5.07;100.00
72423;BME280;60413;55.658;37.498;2023-03-21T06:46:44;98307.25;;;5.93;100.00
72423;BME280;60413;55.658;37.498;2023-03-21T06:49:38;98258.50;;;5.87;100.00
72423;BME280;60413;55.658;37.498;2023-03-21T06:52:34;98238.13;;;6.12;100.00
72423;BME280;60413;55.658;37.498;2023-03-21T06:59:21;98284.56;;;8.22;100.00
72423;BME280;60413;55.658;37.498;2023-03-21T07:32:08;98241.13;;;6.45;100.00
72423;BME280;60413;55.658;37.498;2023-03-21T07:44:22;98289.28;;;6.73;100.00
72423;BME280;60413;55.658;37.498;2023-03-21T07:47:28;98201.22;;;6.26;100.00
72423;BME280;60413;55.658;37.498;2023-03-21T07:50:05;98241.47;;;6.77;100.00
72423;BME280;60413;55.658;37.498;2023-03-21T07:52:37;98219.50;;;6.78;100.00
72423;BME280;60413;55.658;37.498;2023-03-21T07:55:07;98266.53;;;7.36;100.00
72423;BME280;60413;55.658;37.498;2023-03-21T07:57:36;98215.38;;;6.99;100.00
72423;BME280;60413;55.658;37.498;2023-03-21T08:00:08;98237.72;;;7.36;100.00
72423;BME280;60413;55.658;37.498;2023-03-21T08:02:51;98214.91;;;7.36;100.00
72423;BME280;60413;55.658;37.498;2023-03-21T08:05:21;98277.47;;;8.01;100.00
72423;BME280;60413;55.658;37.498;2023-03-21T08:07:51;98282.84;;;8.11;100.00
72423;BME280;60413;55.658;37.498;2023-03-21T08:10:50;98270.13;;;8.03;100.00
72423;BME280;60413;55.658;37.498;2023-03-21T08:13:36;98261.50;;;8.24;100.00
72423;BME280;60413;55.658;37.498;2023-03-21T08:17:00;98207.72;;;7.66;100.00
72423;BME280;60413;55.658;37.498;2023-03-21T08:19:58;98222.34;;;7.61;100.00
72423;BME280;60413;55.658;37.498;2023-03-21T08:22:29;98216.00;;;7.57;100.00
72423;BME280;60413;55.658;37.498;2023-03-21T08:25:16;98260.19;;;8.05;100.00
72423;BME280;60413;55.658;37.498;2023-03-21T08:27:57;98242.16;;;7.91;100.00
72423;BME280;60413;55.658;37.498;2023-03-21T08:30:32;98262.97;;;7.98;100.00
72423;BME280;60413;55.658;37.498;2023-03-21T08:33:09;98209.97;;;7.40;100.00
72423;BME280;60413;55.658;37.498;2023-03-21T08:35:56;98192.97;;;7.42;100.00
72423;BME280;60413;55.658;37.498;2023-03-21T08:38:35;98193.63;;;7.33;100.00
72423;BME280;60413;55.658;37.498;2023-03-21T08:41:06;98217.75;;;7.35;100.00
72423;BME280;60413;55.658;37.498;2023-03-21T08:43:35;98198.38;;;7.36;100.00
72423;BME280;60413;55.658;37.498;2023-03-21T08:46:19;98201.16;;;7.29;100.00
72423;BME280;60413;55.658;37.498;2023-03-21T08:48:52;98220.47;;;7.40;100.00
72423;BME280;60413;55.658;37.498;2023-03-21T08:51:21;98213.22;;;7.13;100.00
72423;BME280;60413;55.658;37.498;2023-03-21T08:53:55;98201.16;;;6.95;100.00
72423;BME280;60413;55.658;37.498;2023-03-21T08:56:48;98190.69;;;6.78;100.00
72423;BME280;60413;55.658;37.498;2023-03-21T08:59:23;98168.06;;;6.43;100.00
72423;BME280;60413;55.658;37.498;2023-03-21T09:01:52;98183.75;;;6.72;100.00
72423;BME280;60413;55.658;37.498;2023-03-21T09:04:30;98183.59;;;6.79;100.00
72423;BME280;60413;55.658;37.498;2023-03-21T09:07:02;98175.13;;;7.05;100.00
72423;BME280;60413;55.658;37.498;2023-03-21T09:13:27;98233.50;;;7.91;100.00
72423;BME280;60413;55.658;37.498;2023-03-21T09:16:32;98197.50;;;7.47;100.00
72423;BME280;60413;55.658;37.498;2023-03-21T09:19:09;98186.03;;;7.53;100.00
72423;BME280;60413;55.658;37.498;2023-03-21T09:21:56;98218.53;;;7.69;100.00
72423;BME280;60413;55.658;37.498;2023-03-21T09:24:35;98238.09;;;7.78;100.00
72423;BME280;60413;55.658;37.498;2023-03-21T09:27:06;98221.94;;;7.70;100.00
72423;BME280;60413;55.658;37.498;2023-03-21T09:30:17;98234.53;;;7.90;100.00
72423;BME280;60413;55.658;37.498;2023-03-21T09:32:48;98175.63;;;7.97;100.00
72423;BME280;60413;55.658;37.498;2023-03-21T09:35:19;98179.53;;;8.17;100.00
72423;BME280;60413;55.658;37.498;2023-03-21T09:38:15;98199.09;;;8.31;100.00
72423;BME280;60413;55.658;37.498;2023-03-21T09:41:18;98224.38;;;8.60;100.00
72423;BME280;60413;55.658;37.498;2023-03-21T09:47:29;98195.41;;;8.82;100.00
72423;BME280;60413;55.658;37.498;2023-03-21T09:50:31;98184.41;;;8.85;100.00
72423;BME280;60413;55.658;37.498;2023-03-21T09:53:43;98180.22;;;8.84;100.00
72423;BME280;60413;55.658;37.498;2023-03-21T09:56:21;98199.34;;;9.12;100.00
72423;BME280;60413;55.658;37.498;2023-03-21T09:58:56;98233.63;;;9.59;100.00
72423;BME280;60413;55.658;37.498;2023-03-21T10:01:30;98160.69;;;9.07;100.00
72423;BME280;60413;55.658;37.498;2023-03-21T10:04:11;98156.97;;;9.03;100.00
72423;BME280;60413;55.658;37.498;2023-03-21T10:06:55;98199.00;;;9.35;100.00
72423;BME280;60413;55.658;37.498;2023-03-21T10:09:31;98171.81;;;9.19;100.00
72423;BME280;60413;55.658;37.498;2023-03-21T10:12:14;98171.94;;;9.40;100.00
72423;BME280;60413;55.658;37.498;2023-03-21T10:14:50;98154.25;;;9.30;100.00
72423;BME280;60413;55.658;37.498;2023-03-21T10:17:42;98145.34;;;8.94;100.00
72423;BME280;60413;55.658;37.498;2023-03-21T10:23:14;98173.03;;;9.44;100.00
72423;BME280;60413;55.658;37.498;2023-03-21T10:25:49;98134.66;;;9.05;100.00
72423;BME280;60413;55.658;37.498;2023-03-21T10:28:39;98141.13;;;8.93;100.00
72423;BME280;60413;55.658;37.498;2023-03-21T10:31:29;98130.56;;;8.82;100.00
72423;BME280;60413;55.658;37.498;2023-03-21T10:34:02;98167.50;;;9.03;100.00
72423;BME280;60413;55.658;37.498;2023-03-21T10:37:05;98151.16;;;8.96;100.00
72423;BME280;60413;55.658;37.498;2023-03-21T10:39:43;98126.41;;;8.59;100.00
72423;BME280;60413;55.658;37.498;2023-03-21T10:42:27;98182.28;;;8.82;100.00
72423;BME280;60413;55.658;37.498;2023-03-21T10:45:14;98120.78;;;8.23;100.00
72423;BME280;60413;55.658;37.498;2023-03-21T10:47:58;98175.72;;;8.79;100.00
72423;BME280;60413;55.658;37.498;2023-03-21T10:50:36;98154.03;;;8.67;100.00
72423;BME280;60413;55.658;37.498;2023-03-21T10:53:19;98174.19;;;8.88;100.00
72423;BME280;60413;55.658;37.498;2023-03-21T10:56:02;98120.25;;;8.76;100.00
72423;BME280;60413;55.658;37.498;2023-03-21T10:58:49;98147.06;;;9.15;100.00
72423;BME280;60413;55.658;37.498;2023-03-21T11:01:44;98143.56;;;8.99;100.00
72423;BME280;60413;55.658;37.498;2023-03-21T11:04:34;98127.72;;;8.62;100.00
72423;BME280;60413;55.658;37.498;2023-03-21T11:07:13;98134.09;;;8.66;100.00
72423;BME280;60413;55.658;37.498;2023-03-21T11:09:56;98126.31;;;8.49;100.00
72423;BME280;60413;55.658;37.498;2023-03-21T11:12:34;98160.72;;;8.80;100.00
72423;BME280;60413;55.658;37.498;2023-03-21T11:15:31;98150.38;;;8.68;100.00
72423;BME280;60413;55.658;37.498;2023-03-21T11:18:17;98150.34;;;8.63;100.00
72423;BME280;60413;55.658;37.498;2023-03-21T11:21:21;98107.94;;;8.27;100.00
72423;BME280;60413;55.658;37.498;2023-03-21T11:24:04;98122.91;;;8.26;100.00
72423;BME280;60413;55.658;37.498;2023-03-21T11:26:43;98116.69;;;8.32;100.00
72423;BME280;60413;55.658;37.498;2023-03-21T11:29:35;98183.88;;;8.83;100.00
72423;BME280;60413;55.658;37.498;2023-03-21T11:32:32;98174.72;;;8.85;100.00
72423;BME280;60413;55.658;37.498;2023-03-21T11:35:22;98161.47;;;8.75;100.00
72423;BME280;60413;55.658;37.498;2023-03-21T11:38:44;98100.56;;;8.46;100.00
72423;BME280;60413;55.658;37.498;2023-03-21T11:41:33;98163.09;;;8.81;100.00
72423;BME280;60413;55.658;37.498;2023-03-21T11:44:42;98131.56;;;8.49;100.00
72423;BME280;60413;55.658;37.498;2023-03-21T11:47:36;98093.22;;;8.48;100.00
72423;BME280;60413;55.658;37.498;2023-03-21T11:50:28;98092.34;;;8.69;100.00
72423;BME280;60413;55.658;37.498;2023-03-21T11:56:21;98104.56;;;8.86;100.00
72423;BME280;60413;55.658;37.498;2023-03-21T11:59:15;98100.84;;;8.82;100.00
72423;BME280;60413;55.658;37.498;2023-03-21T12:05:26;98082.47;;;8.49;100.00
72423;BME280;60413;55.658;37.498;2023-03-21T12:11:17;98142.63;;;8.51;100.00
72423;BME280;60413;55.658;37.498;2023-03-21T12:14:29;98124.34;;;8.12;100.00
72423;BME280;60413;55.658;37.498;2023-03-21T12:23:09;98139.34;;;8.66;100.00
72423;BME280;60413;55.658;37.498;2023-03-21T12:37:52;98090.44;;;8.92;100.00
72423;BME280;60413;55.658;37.498;2023-03-21T12:46:03;98120.84;;;9.73;100.00
72423;BME280;60413;55.658;37.498;2023-03-21T12:48:43;98079.13;;;9.39;100.00
72423;BME280;60413;55.658;37.498;2023-03-21T12:51:43;98087.41;;;9.16;100.00
72423;BME280;60413;55.658;37.498;2023-03-21T13:04:07;98071.00;;;8.61;100.00
72423;BME280;60413;55.658;37.498;2023-03-21T13:06:50;98059.53;;;8.72;100.00
72423;BME280;60413;55.658;37.498;2023-03-21T13:09:33;98062.78;;;8.84;100.00
72423;BME280;60413;55.658;37.498;2023-03-21T13:12:54;98084.31;;;9.24;100.00
72423;BME280;60413;55.658;37.498;2023-03-21T13:15:36;98063.19;;;9.08;100.00
72423;BME280;60413;55.658;37.498;2023-03-21T13:18:30;98065.81;;;9.08;100.00
72423;BME280;60413;55.658;37.498;2023-03-21T13:21:09;98057.34;;;9.01;100.00
72423;BME280;60413;55.658;37.498;2023-03-21T13:24:02;98045.81;;;9.02;100.00
72423;BME280;60413;55.658;37.498;2023-03-21T13:26:57;98087.19;;;9.22;100.00
72423;BME280;60413;55.658;37.498;2023-03-21T13:30:03;98092.72;;;9.26;100.00
72423;BME280;60413;55.658;37.498;2023-03-21T13:32:44;98117.00;;;9.43;100.00
72423;BME280;60413;55.658;37.498;2023-03-21T13:35:31;98102.50;;;9.31;100.00
72423;BME280;60413;55.658;37.498;2023-03-21T13:41:02;98047.31;;;8.93;100.00
72423;BME280;60413;55.658;37.498;2023-03-21T13:47:03;98081.97;;;9.27;100.00
72423;BME280;60413;55.658;37.498;2023-03-21T13:49:40;98093.34;;;9.43;100.00
72423;BME280;60413;55.658;37.498;2023-03-21T13:52:26;98060.84;;;9.12;100.00
72423;BME280;60413;55.658;37.498;2023-03-21T13:55:38;98061.63;;;9.13;100.00
72423;BME280;60413;55.658;37.498;2023-03-21T13:58:59;98106.47;;;9.38;100.00
72423;BME280;60413;55.658;37.498;2023-03-21T14:01:39;98048.25;;;8.77;100.00
72423;BME280;60413;55.658;37.498;2023-03-21T14:04:44;98062.78;;;8.84;100.00
72423;BME280;60413;55.658;37.498;2023-03-21T14:07:57;98060.41;;;8.83;100.00
72423;BME280;60413;55.658;37.498;2023-03-21T14:10:36;98034.53;;;8.64;100.00
72423;BME280;60413;55.658;37.498;2023-03-21T14:13:35;98037.22;;;8.42;100.00
72423;BME280;60413;55.658;37.498;2023-03-21T14:16:12;98068.50;;;8.44;100.00
72423;BME280;60413;55.658;37.498;2023-03-21T14:19:02;98049.72;;;8.03;100.00
72423;BME280;60413;55.658;37.498;2023-03-21T14:21:36;98026.06;;;7.70;100.00
72423;BME280;60413;55.658;37.498;2023-03-21T14:24:09;98069.75;;;7.87;100.00
72423;BME280;60413;55.658;37.498;2023-03-21T14:26:44;98097.75;;;8.03;100.00
72423;BME280;60413;55.658;37.498;2023-03-21T14:29:29;98024.81;;;7.78;100.00
72423;BME280;60413;55.658;37.498;2023-03-21T14:32:32;98025.53;;;7.95;100.00
72423;BME280;60413;55.658;37.498;2023-03-21T14:35:16;98043.88;;;8.23;100.00
72423;BME280;60413;55.658;37.498;2023-03-21T14:37:45;98031.28;;;8.25;100.00
72423;BME280;60413;55.658;37.498;2023-03-21T14:40:54;98031.50;;;8.18;100.00
72423;BME280;60413;55.658;37.498;2023-03-21T14:44:00;98060.00;;;8.37;100.00
72423;BME280;60413;55.658;37.498;2023-03-21T14:46:36;98089.34;;;8.56;100.00
72423;BME280;60413;55.658;37.498;2023-03-21T14:49:27;98068.50;;;8.44;100.00
72423;BME280;60413;55.658;37.498;2023-03-21T14:52:11;98076.59;;;8.42;100.00
72423;BME280;60413;55.658;37.498;2023-03-21T14:55:19;98094.31;;;8.52;100.00
72423;BME280;60413;55.658;37.498;2023-03-21T14:57:48;98033.03;;;8.14;100.00
72423;BME280;60413;55.658;37.498;2023-03-21T15:01:11;98018.72;;;8.00;100.00
72423;BME280;60413;55.658;37.498;2023-03-21T15:03:45;98044.22;;;8.04;100.00
72423;BME280;60413;55.658;37.498;2023-03-21T15:06:18;98025.97;;;7.87;100.00
72423;BME280;60413;55.658;37.498;2023-03-21T15:09:04;98051.19;;;7.93;100.00
72423;BME280;60413;55.658;37.498;2023-03-21T15:11:54;98028.72;;;7.75;100.00
72423;BME280;60413;55.658;37.498;2023-03-21T15:14:40;98070.13;;;7.95;100.00
72423;BME280;60413;55.658;37.498;2023-03-21T15:17:23;98035.19;;;7.68;100.00
72423;BME280;60413;55.658;37.498;2023-03-21T15:20:12;98025.13;;;7.59;100.00
72423;BME280;60413;55.658;37.498;2023-03-21T15:22:46;98050.50;;;7.76;100.00
72423;BME280;60413;55.658;37.498;2023-03-21T15:25:30;98052.56;;;7.74;100.00
72423;BME280;60413;55.658;37.498;2023-03-21T15:28:03;98071.41;;;7.93;100.00
72423;BME280;60413;55.658;37.498;2023-03-21T15:30:31;98028.97;;;7.74;100.00
72423;BME280;60413;55.658;37.498;2023-03-21T15:33:12;98056.63;;;8.09;100.00
72423;BME280;60413;55.658;37.498;2023-03-21T15:35:57;98050.00;;;8.06;100.00
72423;BME280;60413;55.658;37.498;2023-03-21T15:41:16;98097.97;;;8.24;100.00
72423;BME280;60413;55.658;37.498;2023-03-21T15:44:12;98090.25;;;8.12;100.00
72423;BME280;60413;55.658;37.498;2023-03-21T15:46:52;98036.41;;;7.60;100.00
72423;BME280;60413;55.658;37.498;2023-03-21T15:49:28;98065.56;;;7.86;100.00
72423;BME280;60413;55.658;37.498;2023-03-21T15:52:13;98069.59;;;7.71;100.00
72423;BME280;60413;55.658;37.498;2023-03-21T15:54:50;98040.28;;;7.52;100.00
72423;BME280;60413;55.658;37.498;2023-03-21T15:57:33;98068.56;;;7.72;100.00
72423;BME280;60413;55.658;37.498;2023-03-21T16:02:40;98071.97;;;7.73;100.00
72423;BME280;60413;55.658;37.498;2023-03-21T16:05:30;98046.53;;;7.51;100.00
72423;BME280;60413;55.658;37.498;2023-03-21T16:11:11;98076.47;;;7.77;100.00
72423;BME280;60413;55.658;37.498;2023-03-21T16:13:59;98046.91;;;7.60;100.00
72423;BME280;60413;55.658;37.498;2023-03-21T16:16:31;98072.16;;;7.66;100.00
72423;BME280;60413;55.658;37.498;2023-03-21T16:19:07;98124.06;;;7.86;100.00
72423;BME280;60413;55.658;37.498;2023-03-21T16:21:50;98092.72;;;7.74;100.00
72423;BME280;60413;55.658;37.498;2023-03-21T16:24:43;98115.94;;;7.88;100.00
72423;BME280;60413;55.658;37.498;2023-03-21T16:27:22;98060.13;;;7.48;100.00
72423;BME280;60413;55.658;37.498;2023-03-21T16:30:03;98059.28;;;7.42;100.00
72423;BME280;60413;55.658;37.498;2023-03-21T16:32:45;98129.78;;;7.83;100.00
72423;BME280;60413;55.658;37.498;2023-03-21T16:35:15;98061.31;;;7.35;100.00
72423;BME280;60413;55.658;37.498;2023-03-21T16:37:50;98053.03;;;7.27;100.00
72423;BME280;60413;55.658;37.498;2023-03-21T16:56:58;98133.53;;;7.48;100.00
72423;BME280;60413;55.658;37.498;2023-03-21T16:59:31;98070.66;;;7.09;100.00
72423;BME280;60413;55.658;37.498;2023-03-21T17:08:27;98078.16;;;7.22;100.00
72423;BME280;60413;55.658;37.498;2023-03-21T17:20:32;98150.78;;;7.83;100.00
72423;BME280;60413;55.658;37.498;2023-03-21T17:24:22;98097.19;;;7.35;100.00
72423;BME280;60413;55.658;37.498;2023-03-21T17:32:24;98111.38;;;7.00;100.00
72423;BME280;60413;55.658;37.498;2023-03-21T17:35:43;98165.19;;;7.24;100.00
72423;BME280;60413;55.658;37.498;2023-03-21T17:38:46;98136.63;;;7.06;100.00
72423;BME280;60413;55.658;37.498;2023-03-21T17:49:19;98126.78;;;6.62;100.00
72423;BME280;60413;55.658;37.498;2023-03-21T18:03:52;98081.91;;;5.96;100.00
72423;BME280;60413;55.658;37.498;2023-03-21T18:06:48;98125.34;;;6.26;100.00
72423;BME280;60413;55.658;37.498;2023-03-21T18:10:30;98082.34;;;5.93;100.00
72423;BME280;60413;55.658;37.498;2023-03-21T18:13:58;98114.81;;;6.21;100.00
72423;BME280;60413;55.658;37.498;2023-03-21T18:17:38;98129.19;;;6.35;100.00
72423;BME280;60413;55.658;37.498;2023-03-21T18:20:15;98115.03;;;6.19;100.00
72423;BME280;60413;55.658;37.498;2023-03-21T18:23:01;98054.53;;;5.87;100.00
72423;BME280;60413;55.658;37.498;2023-03-21T18:25:28;98111.47;;;6.25;100.00
72423;BME280;60413;55.658;37.498;2023-03-21T18:27:56;98109.09;;;6.24;100.00
72423;BME280;60413;55.658;37.498;2023-03-21T18:30:29;98026.66;;;5.64;100.00
72423;BME280;60413;55.658;37.498;2023-03-21T18:32:55;98026.66;;;5.64;100.00
72423;BME280;60413;55.658;37.498;2023-03-21T18:35:21;98056.91;;;5.88;100.00
72423;BME280;60413;55.658;37.498;2023-03-21T18:38:31;98019.72;;;5.57;100.00
72423;BME280;60413;55.658;37.498;2023-03-21T18:41:20;98023.38;;;5.56;100.00
72423;BME280;60413;55.658;37.498;2023-03-21T18:44:45;98015.44;;;5.51;100.00
72423;BME280;60413;55.658;37.498;2023-03-21T18:47:57;98069.13;;;5.71;100.00
72423;BME280;60413;55.658;37.498;2023-03-21T18:50:36;97996.31;;;5.22;100.00
72423;BME280;60413;55.658;37.498;2023-03-21T18:53:17;98003.69;;;5.25;100.00
72423;BME280;60413;55.658;37.498;2023-03-21T18:56:10;98032.81;;;5.46;100.00
72423;BME280;60413;55.658;37.498;2023-03-21T18:59:00;98025.94;;;5.28;100.00
72423;BME280;60413;55.658;37.498;2023-03-21T19:06:19;98086.59;;;5.42;100.00
72423;BME280;60413;55.658;37.498;2023-03-21T19:08:46;98015.31;;;4.94;100.00
72423;BME280;60413;55.658;37.498;2023-03-21T19:11:15;98031.19;;;4.92;100.00
72423;BME280;60413;55.658;37.498;2023-03-21T19:13:55;98026.56;;;5.06;100.00
72423;BME280;60413;55.658;37.498;2023-03-21T19:16:27;98047.31;;;5.13;100.00
72423;BME280;60413;55.658;37.498;2023-03-21T19:19:13;98024.28;;;4.98;100.00
72423;BME280;60413;55.658;37.498;2023-03-21T19:22:00;98043.69;;;5.14;100.00
72423;BME280;60413;55.658;37.498;2023-03-21T19:25:06;98021.56;;;4.81;100.00
72423;BME280;60413;55.658;37.498;2023-03-21T19:28:02;98063.78;;;5.13;100.00
72423;BME280;60413;55.658;37.498;2023-03-21T19:30:44;98024.41;;;4.91;100.00
72423;BME280;60413;55.658;37.498;2023-03-21T19:33:37;98095.13;;;5.25;100.00
72423;BME280;60413;55.658;37.498;2023-03-21T19:37:12;98095.91;;;5.26;100.00
72423;BME280;60413;55.658;37.498;2023-03-21T19:40:12;98095.00;;;5.08;100.00
72423;BME280;60413;55.658;37.498;2023-03-21T19:42:53;98034.03;;;4.67;100.00